Weather at Long Rungan

Public forecast

Using degrees Celsius for public forecast. Weather courtesy of forecast.io.

Closest aviation weather report (METAR) to Long Rungan

Closest report is Brunei International Airport, 97.5 nm (180.6 km) NW. Retrieved 2021/12/03 04:00 UTC (16 minutes ago):

WBSB 030400Z 21005KT 9999 SCT015 FEW016CB BKN140 30/26 Q1011 NOSIG

Closest aviation forecast (TAF) to Long Rungan

Closest forecast is Brunei International Airport, 97.5 nm (180.6 km) NW. Retrieved 2021-12-03 00:15 UTC (4 hours ago):

TAF WBSB 022300Z 0300/0406 16003KT 9999 FEW014 BECMG 0305/0307 03008KT FEW015 FEW016CB TEMPO 0310/0312 7000 TSRA